createdAt,value
2022-10-09T00:01:11.476Z,4.00
2022-10-09T00:03:42.395Z,3.72
2022-10-09T00:06:12.704Z,4.40
2022-10-09T00:08:41.251Z,4.22
2022-10-09T00:11:10.742Z,3.92
2022-10-09T00:13:39.417Z,3.00
2022-10-09T00:16:09.591Z,4.40
2022-10-09T00:18:37.852Z,3.67
2022-10-09T00:21:07.643Z,3.17
2022-10-09T00:23:35.319Z,3.75
2022-10-09T00:26:03.159Z,3.67
2022-10-09T00:28:35.423Z,3.67
2022-10-09T00:31:06.077Z,3.42
2022-10-09T00:33:35.039Z,3.55
2022-10-09T00:36:04.171Z,4.15
2022-10-09T00:38:33.307Z,3.78
2022-10-09T00:41:01.247Z,3.33
2022-10-09T00:43:44.651Z,3.67
2022-10-09T00:46:21.601Z,3.92
2022-10-09T00:48:54.940Z,4.03
2022-10-09T00:51:22.702Z,3.97
2022-10-09T00:53:52.319Z,3.80
2022-10-09T00:56:20.343Z,3.78
2022-10-09T00:58:52.525Z,3.60
2022-10-09T01:01:20.326Z,3.58
2022-10-09T01:03:48.452Z,3.60
2022-10-09T01:06:19.998Z,3.88
2022-10-09T01:08:57.722Z,3.72
2022-10-09T01:11:36.297Z,3.10
2022-10-09T01:14:07.769Z,3.72
2022-10-09T01:16:39.817Z,3.58
2022-10-09T01:19:16.971Z,3.50
2022-10-09T01:21:53.919Z,4.10
2022-10-09T01:24:30.104Z,3.60
2022-10-09T01:27:08.616Z,3.40
2022-10-09T01:29:39.279Z,3.60
2022-10-09T01:32:10.056Z,3.20
2022-10-09T01:34:40.053Z,3.45
2022-10-09T01:37:09.950Z,3.20
2022-10-09T01:39:38.835Z,3.03
2022-10-09T01:42:08.720Z,3.30
2022-10-09T01:44:36.479Z,3.30
2022-10-09T01:47:04.943Z,3.67
2022-10-09T01:49:45.748Z,3.30
2022-10-09T01:52:24.657Z,3.33
2022-10-09T01:55:04.313Z,4.00
2022-10-09T01:57:41.639Z,2.72
2022-10-09T02:00:11.759Z,2.70
2022-10-09T02:02:41.787Z,2.70
2022-10-09T02:05:11.615Z,2.80
2022-10-09T02:07:39.546Z,3.25
2022-10-09T02:10:10.344Z,2.70
2022-10-09T02:12:44.483Z,2.50
2022-10-09T02:15:12.832Z,2.70
2022-10-09T02:17:45.105Z,2.45
2022-10-09T02:20:19.571Z,3.05
2022-10-09T02:22:48.054Z,2.67
2022-10-09T02:25:17.802Z,3.13
2022-10-09T02:27:47.109Z,2.40
2022-10-09T02:32:43.204Z,2.63
2022-10-09T02:35:11.005Z,2.60
2022-10-09T02:37:38.787Z,2.80
2022-10-09T02:40:10.741Z,2.70
2022-10-09T02:42:38.946Z,3.00
2022-10-09T02:45:10.011Z,2.35
2022-10-09T02:47:37.792Z,2.42
2022-10-09T02:50:06.431Z,2.45
2022-10-09T02:52:34.222Z,2.65
2022-10-09T02:55:01.995Z,2.78
2022-10-09T02:57:29.723Z,2.20
2022-10-09T02:59:57.456Z,2.10
2022-10-09T03:02:26.690Z,2.30
2022-10-09T03:07:22.169Z,2.15
2022-10-09T03:09:49.887Z,2.65
2022-10-09T03:12:21.246Z,2.30
2022-10-09T03:14:49.143Z,2.10
2022-10-09T03:17:16.947Z,2.40
2022-10-09T03:19:46.060Z,2.25
2022-10-09T03:22:13.803Z,2.50
2022-10-09T03:24:41.539Z,2.22
2022-10-09T03:27:09.534Z,2.38
2022-10-09T03:29:37.266Z,2.38
2022-10-09T03:32:05.069Z,2.03
2022-10-09T03:34:32.879Z,2.00
2022-10-09T03:37:02.126Z,1.80
2022-10-09T03:39:29.884Z,2.50
2022-10-09T03:41:57.582Z,2.10
2022-10-09T03:44:25.306Z,2.30
2022-10-09T03:46:53.582Z,2.10
2022-10-09T03:49:21.326Z,1.98
2022-10-09T03:51:49.048Z,1.98
2022-10-09T03:54:18.178Z,1.98
2022-10-09T03:56:45.941Z,2.10
2022-10-09T03:59:13.745Z,1.75
2022-10-09T04:01:41.485Z,2.17
2022-10-09T04:04:09.189Z,2.63
2022-10-09T04:06:36.972Z,1.73
2022-10-09T04:09:04.824Z,1.77
2022-10-09T04:11:34.021Z,2.10
2022-10-09T04:14:01.925Z,1.73
2022-10-09T04:16:29.787Z,1.90
2022-10-09T04:18:57.552Z,2.10
2022-10-09T04:21:25.272Z,1.77
2022-10-09T04:23:53.114Z,1.75
2022-10-09T04:26:20.828Z,1.83
2022-10-09T04:28:49.936Z,2.22
2022-10-09T04:31:17.771Z,2.25
2022-10-09T04:33:45.514Z,2.40
2022-10-09T04:36:13.213Z,2.45
2022-10-09T04:38:40.987Z,1.88
2022-10-09T04:41:08.955Z,2.33
2022-10-09T04:43:36.701Z,2.10
2022-10-09T04:46:11.222Z,2.50
2022-10-09T04:48:39.540Z,2.20
2022-10-09T04:51:07.986Z,2.33
2022-10-09T04:53:36.340Z,2.47
2022-10-09T04:56:05.293Z,2.58
2022-10-09T04:58:33.307Z,2.78
2022-10-09T05:01:01.024Z,2.47
2022-10-09T05:03:30.132Z,2.05
2022-10-09T05:06:01.796Z,2.30
2022-10-09T05:08:29.626Z,2.83
2022-10-09T05:11:01.059Z,2.30
2022-10-09T05:13:30.685Z,2.42
2022-10-09T05:15:58.446Z,2.58
2022-10-09T05:18:26.135Z,2.47
2022-10-09T05:20:55.178Z,2.67
2022-10-09T05:23:23.018Z,2.30
2022-10-09T05:25:55.596Z,3.10
2022-10-09T05:28:23.565Z,2.40
2022-10-09T05:30:51.544Z,2.78
2022-10-09T05:33:19.418Z,2.75
2022-10-09T05:35:59.715Z,3.00
2022-10-09T05:38:28.678Z,2.78
2022-10-09T05:40:57.970Z,2.20
2022-10-09T05:45:53.913Z,2.83
2022-10-09T05:48:22.983Z,2.35
2022-10-09T05:50:50.727Z,2.70
2022-10-09T05:53:19.861Z,2.63
2022-10-09T05:55:47.552Z,2.60
2022-10-09T05:58:15.258Z,2.50
2022-10-09T06:00:42.954Z,2.42
2022-10-09T06:03:10.697Z,2.97
2022-10-09T06:05:38.466Z,3.15
2022-10-09T06:08:06.249Z,3.13
2022-10-09T06:10:35.284Z,2.67
2022-10-09T06:13:02.992Z,2.83
2022-10-09T06:15:30.724Z,2.95
2022-10-09T06:17:58.476Z,2.60
2022-10-09T06:20:26.389Z,2.10
2022-10-09T06:22:54.107Z,2.10
2022-10-09T06:25:21.808Z,2.83
2022-10-09T06:27:50.860Z,1.98
2022-10-09T06:30:18.689Z,2.30
2022-10-09T06:32:46.727Z,1.58
2022-10-09T06:35:14.779Z,1.83
2022-10-09T06:37:42.492Z,2.10
2022-10-09T06:40:10.845Z,2.00
2022-10-09T06:42:38.567Z,1.80
2022-10-09T06:45:18.879Z,2.22
2022-10-09T06:47:46.609Z,1.50
2022-10-09T06:50:16.058Z,2.35
2022-10-09T06:52:43.888Z,2.22
2022-10-09T06:55:11.796Z,1.92
2022-10-09T06:57:42.181Z,2.25
2022-10-09T07:00:10.858Z,3.72
2022-10-09T07:02:44.036Z,2.92
2022-10-09T07:05:12.090Z,3.60
2022-10-09T07:07:41.466Z,2.20
2022-10-09T07:10:10.362Z,2.25
2022-10-09T07:12:38.644Z,1.80
2022-10-09T07:15:11.270Z,1.73
2022-10-09T07:17:40.379Z,1.90
2022-10-09T07:20:08.311Z,1.98
2022-10-09T07:22:36.183Z,1.60
2022-10-09T07:25:04.310Z,1.80
2022-10-09T07:27:32.062Z,1.77
2022-10-09T07:30:00.803Z,2.03
2022-10-09T07:32:28.549Z,2.25
2022-10-09T07:34:57.618Z,2.40
2022-10-09T07:37:25.391Z,2.40
2022-10-09T07:39:53.110Z,2.75
2022-10-09T07:42:20.923Z,2.22
2022-10-09T07:44:48.672Z,2.25
2022-10-09T07:47:16.422Z,2.00
2022-10-09T07:49:44.162Z,1.90
2022-10-09T07:52:13.226Z,2.00
2022-10-09T07:54:40.970Z,1.77
2022-10-09T07:57:08.702Z,1.80
2022-10-09T07:59:36.454Z,1.73
2022-10-09T08:02:04.283Z,2.28
2022-10-09T08:04:34.023Z,1.73
2022-10-09T08:07:01.779Z,2.47
2022-10-09T08:09:30.949Z,1.70
2022-10-09T08:11:58.705Z,1.75
2022-10-09T08:14:26.424Z,2.08
2022-10-09T08:16:54.167Z,1.83
2022-10-09T08:19:21.884Z,1.92
2022-10-09T08:21:49.622Z,3.25
2022-10-09T08:24:17.520Z,2.10
2022-10-09T08:26:46.565Z,1.42
2022-10-09T08:29:16.439Z,1.75
2022-10-09T08:31:44.209Z,1.77
2022-10-09T08:34:12.058Z,1.70
2022-10-09T08:36:40.171Z,2.47
2022-10-09T08:39:07.915Z,1.60
2022-10-09T08:41:49.335Z,1.50
2022-10-09T08:44:21.509Z,1.65
2022-10-09T08:46:59.248Z,1.38
2022-10-09T08:49:31.926Z,1.80
2022-10-09T08:52:11.605Z,1.85
2022-10-09T08:54:40.432Z,1.77
2022-10-09T08:57:13.958Z,1.65
2022-10-09T08:59:41.788Z,2.10
2022-10-09T09:02:28.225Z,1.80
2022-10-09T09:05:15.861Z,1.70
2022-10-09T09:07:50.892Z,1.83
2022-10-09T09:10:27.350Z,1.85
2022-10-09T09:13:00.935Z,2.00
2022-10-09T09:15:45.206Z,1.90
2022-10-09T09:18:27.435Z,2.17
2022-10-09T09:20:56.514Z,2.03
2022-10-09T09:23:28.893Z,1.80
2022-10-09T09:25:59.406Z,1.73
2022-10-09T09:28:31.511Z,1.60
2022-10-09T09:31:03.970Z,1.77
2022-10-09T09:33:43.577Z,1.90
2022-10-09T09:36:19.127Z,1.70
2022-10-09T09:39:24.963Z,2.00
2022-10-09T09:41:34.700Z,2.05
2022-10-09T09:44:03.842Z,1.70
2022-10-09T09:46:33.243Z,1.80
2022-10-09T09:49:02.316Z,1.85
2022-10-09T09:51:34.188Z,1.85
2022-10-09T09:54:04.883Z,2.00
2022-10-09T09:56:59.832Z,1.77
2022-10-09T09:59:34.590Z,1.80
2022-10-09T10:02:03.920Z,1.67
2022-10-09T10:04:31.684Z,1.80
2022-10-09T10:07:00.058Z,1.58
2022-10-09T10:09:28.053Z,1.40
2022-10-09T10:11:58.047Z,1.47
2022-10-09T10:14:26.731Z,1.55
2022-10-09T10:16:58.589Z,1.25
2022-10-09T10:19:28.457Z,1.50
2022-10-09T10:21:59.196Z,1.48
2022-10-09T10:24:31.705Z,1.60
2022-10-09T10:27:02.752Z,1.35
2022-10-09T10:29:35.108Z,1.88
2022-10-09T10:32:12.004Z,1.63
2022-10-09T10:34:45.599Z,1.45
2022-10-09T10:37:27.578Z,1.40
2022-10-09T10:40:00.337Z,1.40
2022-10-09T10:42:42.799Z,1.60
2022-10-09T10:45:15.630Z,1.20
2022-10-09T10:47:53.351Z,1.20
2022-10-09T10:50:22.280Z,1.42
2022-10-09T10:55:36.752Z,1.67
2022-10-09T11:00:42.247Z,1.40
2022-10-09T11:03:39.079Z,1.35
2022-10-09T11:06:15.389Z,1.65
2022-10-09T11:08:54.847Z,1.40
2022-10-09T11:11:26.421Z,1.40
2022-10-09T11:14:03.708Z,1.67
2022-10-09T11:16:47.355Z,1.38
2022-10-09T11:19:45.107Z,1.30
2022-10-09T11:22:28.620Z,1.40
2022-10-09T11:25:11.601Z,1.40
2022-10-09T11:27:43.391Z,1.20
2022-10-09T11:30:13.478Z,1.35
2022-10-09T11:32:50.494Z,1.17
2022-10-09T11:35:22.241Z,1.38
2022-10-09T11:37:58.725Z,1.45
2022-10-09T11:40:32.745Z,1.38
2022-10-09T11:43:08.544Z,2.10
2022-10-09T11:45:44.935Z,1.90
2022-10-09T11:48:20.399Z,1.67
2022-10-09T11:50:59.143Z,2.00
2022-10-09T11:53:28.738Z,1.80
2022-10-09T11:56:03.730Z,1.90
2022-10-09T11:58:31.502Z,2.10
2022-10-09T12:01:13.999Z,1.77
2022-10-09T12:03:42.004Z,1.70
2022-10-09T12:06:13.743Z,1.92
2022-10-09T12:08:44.363Z,2.00
2022-10-09T12:11:15.191Z,1.70
2022-10-09T12:13:49.899Z,1.90
2022-10-09T12:16:34.233Z,1.63
2022-10-09T12:19:05.409Z,1.70
2022-10-09T12:21:40.812Z,1.60
2022-10-09T12:24:16.539Z,1.60
2022-10-09T12:26:44.745Z,1.38
2022-10-09T12:29:21.047Z,1.53
2022-10-09T12:31:53.494Z,1.30
2022-10-09T12:34:25.786Z,1.20
2022-10-09T12:37:04.788Z,1.50
2022-10-09T12:42:01.895Z,1.27
2022-10-09T12:44:33.529Z,1.20
2022-10-09T12:47:03.934Z,1.80
2022-10-09T12:49:32.560Z,2.13
2022-10-09T12:52:02.655Z,1.48
2022-10-09T12:54:32.121Z,1.33
2022-10-09T12:57:00.678Z,1.30
2022-10-09T12:59:29.678Z,1.30
2022-10-09T13:04:29.755Z,1.30
2022-10-09T13:06:58.990Z,1.42
2022-10-09T13:09:33.965Z,1.33
2022-10-09T13:12:07.523Z,1.63
2022-10-09T13:14:37.138Z,1.10
2022-10-09T13:17:05.050Z,1.40
2022-10-09T13:19:35.314Z,1.40
2022-10-09T13:22:21.622Z,1.50
2022-10-09T13:24:54.250Z,1.45
2022-10-09T13:27:22.504Z,1.20
2022-10-09T13:29:50.333Z,1.27
2022-10-09T13:32:18.932Z,0.90
2022-10-09T13:34:47.165Z,1.45
2022-10-09T13:37:17.250Z,1.30
2022-10-09T13:39:45.030Z,1.77
2022-10-09T13:42:16.312Z,1.40
2022-10-09T13:44:44.294Z,1.02
2022-10-09T13:47:12.101Z,1.17
2022-10-09T13:49:39.982Z,1.17
2022-10-09T13:52:07.860Z,1.00
2022-10-09T13:54:35.661Z,1.23
2022-10-09T13:57:03.668Z,1.00
2022-10-09T13:59:33.016Z,1.20
2022-10-09T14:02:01.541Z,1.10
2022-10-09T14:04:30.393Z,1.33
2022-10-09T14:06:58.313Z,1.10
2022-10-09T14:09:26.115Z,1.10
2022-10-09T14:11:53.958Z,0.90
2022-10-09T14:14:22.794Z,1.10
2022-10-09T14:16:51.913Z,1.10
2022-10-09T14:21:47.805Z,1.08
2022-10-09T14:24:15.782Z,1.00
2022-10-09T14:26:45.514Z,1.30
2022-10-09T14:29:16.186Z,0.90
2022-10-09T14:31:44.030Z,1.00
2022-10-09T14:34:14.490Z,1.40
2022-10-09T14:36:42.363Z,1.20
2022-10-09T14:39:10.634Z,0.77
2022-10-09T14:41:38.522Z,0.90
2022-10-09T14:44:07.185Z,1.30
2022-10-09T14:46:37.596Z,0.98
2022-10-09T14:49:08.114Z,0.85
2022-10-09T14:51:39.153Z,1.02
2022-10-09T14:54:08.519Z,1.13
2022-10-09T14:56:36.705Z,1.33
2022-10-09T14:59:05.936Z,1.10
2022-10-09T15:04:02.844Z,1.05
2022-10-09T15:06:31.117Z,1.02
2022-10-09T15:09:05.409Z,1.20
2022-10-09T15:11:35.523Z,1.00
2022-10-09T15:14:03.869Z,1.08
2022-10-09T15:16:31.717Z,1.30
2022-10-09T15:18:59.516Z,1.08
2022-10-09T15:21:30.083Z,1.50
2022-10-09T15:24:00.899Z,1.10
2022-10-09T15:26:32.723Z,0.93
2022-10-09T15:29:02.590Z,1.05
2022-10-09T15:31:32.191Z,1.00
2022-10-09T15:34:01.450Z,1.17
2022-10-09T15:38:57.664Z,1.23
2022-10-09T15:41:28.828Z,1.27
2022-10-09T15:43:59.063Z,1.05
2022-10-09T15:46:27.775Z,1.00
2022-10-09T15:48:56.365Z,1.10
2022-10-09T15:51:25.024Z,0.85
2022-10-09T15:53:53.632Z,1.00
2022-10-09T15:56:23.222Z,0.95
2022-10-09T15:58:53.356Z,0.90
2022-10-09T16:01:21.594Z,0.93
2022-10-09T16:03:49.909Z,1.10
2022-10-09T16:06:20.781Z,1.30
2022-10-09T16:08:48.803Z,1.30
2022-10-09T16:11:20.413Z,1.55
2022-10-09T16:13:52.446Z,1.30
2022-10-09T16:16:22.314Z,1.27
2022-10-09T16:18:50.763Z,1.50
2022-10-09T16:21:21.774Z,1.20
2022-10-09T16:23:53.278Z,1.27
2022-10-09T16:26:23.923Z,1.70
2022-10-09T16:28:53.313Z,1.23
2022-10-09T16:31:22.819Z,1.80
2022-10-09T16:33:51.302Z,1.55
2022-10-09T16:36:19.213Z,1.63
2022-10-09T16:38:47.712Z,1.73
2022-10-09T16:41:17.911Z,1.90
2022-10-09T16:43:47.660Z,1.92
2022-10-09T16:46:20.800Z,1.50
2022-10-09T16:48:49.722Z,1.70
2022-10-09T16:51:19.669Z,2.28
2022-10-09T16:53:50.573Z,1.70
2022-10-09T16:56:20.868Z,1.85
2022-10-09T16:58:48.832Z,1.95
2022-10-09T17:01:18.216Z,1.60
2022-10-09T17:03:46.287Z,1.70
2022-10-09T17:06:15.765Z,1.42
2022-10-09T17:08:43.743Z,1.70
2022-10-09T17:11:13.610Z,1.45
2022-10-09T17:13:41.815Z,1.50
2022-10-09T17:16:15.689Z,1.58
2022-10-09T17:18:48.181Z,1.83
2022-10-09T17:21:17.778Z,1.60
2022-10-09T17:23:46.572Z,1.77
2022-10-09T17:26:17.149Z,1.70
2022-10-09T17:28:45.918Z,2.30
2022-10-09T17:31:15.640Z,1.90
2022-10-09T17:33:45.934Z,1.80
2022-10-09T17:36:17.304Z,1.90
2022-10-09T17:38:45.425Z,1.88
2022-10-09T17:41:14.991Z,3.08
2022-10-09T17:43:42.952Z,2.72
2022-10-09T17:46:10.893Z,2.47
2022-10-09T17:48:44.138Z,2.30
2022-10-09T17:51:17.643Z,2.20
2022-10-09T17:53:45.944Z,2.10
2022-10-09T17:56:14.255Z,2.10
2022-10-09T17:58:42.614Z,2.33
2022-10-09T18:01:12.043Z,2.58
2022-10-09T18:03:39.855Z,2.50
2022-10-09T18:06:09.668Z,2.53
2022-10-09T18:08:39.331Z,2.30
2022-10-09T18:11:08.765Z,2.47
2022-10-09T18:13:37.760Z,2.63
2022-10-09T18:16:06.470Z,2.38
2022-10-09T18:18:34.905Z,2.13
2022-10-09T18:21:07.166Z,2.20
2022-10-09T18:23:35.725Z,2.20
2022-10-09T18:26:09.472Z,2.13
2022-10-09T18:28:37.744Z,2.15
2022-10-09T18:31:06.895Z,1.92
2022-10-09T18:33:34.790Z,2.40
2022-10-09T18:36:04.446Z,2.28
2022-10-09T18:38:32.288Z,2.58
2022-10-09T18:41:00.383Z,2.47
2022-10-09T18:43:30.157Z,2.88
2022-10-09T18:46:00.711Z,2.88
2022-10-09T18:48:30.902Z,2.90
2022-10-09T18:50:59.403Z,2.72
2022-10-09T18:53:27.676Z,2.90
2022-10-09T18:55:55.573Z,2.60
2022-10-09T18:58:23.873Z,2.40
2022-10-09T19:00:53.094Z,2.47
2022-10-09T19:05:48.646Z,2.55
2022-10-09T19:08:16.427Z,2.10
2022-10-09T19:10:44.248Z,2.42
2022-10-09T19:13:12.025Z,2.45
2022-10-09T19:15:39.812Z,2.15
2022-10-09T19:18:09.008Z,2.40
2022-10-09T19:20:39.709Z,2.85
2022-10-09T19:23:08.434Z,2.92
2022-10-09T19:25:36.235Z,2.65
2022-10-09T19:28:04.204Z,2.30
2022-10-09T19:30:32.100Z,2.63
2022-10-09T19:32:59.859Z,2.40
2022-10-09T19:35:28.978Z,3.13
2022-10-09T19:37:56.778Z,2.67
2022-10-09T19:40:24.729Z,2.75
2022-10-09T19:42:52.825Z,2.90
2022-10-09T19:45:20.614Z,2.80
2022-10-09T19:47:53.519Z,2.88
2022-10-09T19:50:22.094Z,3.15
2022-10-09T19:52:51.351Z,3.60
2022-10-09T19:57:47.210Z,2.97
2022-10-09T20:00:15.516Z,2.25
2022-10-09T20:02:43.437Z,2.22
2022-10-09T20:05:11.433Z,2.42
2022-10-09T20:07:39.203Z,2.40
2022-10-09T20:10:09.148Z,2.50
2022-10-09T20:12:37.012Z,2.40
2022-10-09T20:15:05.339Z,2.58
2022-10-09T20:17:33.103Z,2.53
2022-10-09T20:20:00.872Z,2.90
2022-10-09T20:22:28.620Z,2.45
2022-10-09T20:24:56.434Z,2.45
2022-10-09T20:27:25.536Z,2.55
2022-10-09T20:29:53.743Z,2.22
2022-10-09T20:32:21.616Z,2.33
2022-10-09T20:34:49.373Z,2.90
2022-10-09T20:37:17.184Z,2.58
2022-10-09T20:39:44.987Z,2.70
2022-10-09T20:42:12.859Z,2.85
2022-10-09T20:44:42.421Z,2.20
2022-10-09T20:47:10.395Z,2.60
2022-10-09T20:49:38.672Z,2.92
2022-10-09T20:52:06.539Z,2.65
2022-10-09T20:54:34.272Z,2.95
2022-10-09T20:57:02.042Z,2.70
2022-10-09T20:59:29.816Z,2.70
2022-10-09T21:01:58.938Z,3.00
2022-10-09T21:04:26.714Z,2.70
2022-10-09T21:06:55.104Z,2.75
2022-10-09T21:09:22.873Z,3.13
2022-10-09T21:11:50.911Z,2.60
2022-10-09T21:14:18.747Z,2.60
2022-10-09T21:16:46.508Z,2.78
2022-10-09T21:19:15.638Z,3.00
2022-10-09T21:21:47.397Z,3.15
2022-10-09T21:24:17.937Z,2.80
2022-10-09T21:26:46.969Z,2.80
2022-10-09T21:29:15.447Z,3.15
2022-10-09T21:31:43.353Z,3.30
2022-10-09T21:34:11.134Z,3.40
2022-10-09T21:37:02.223Z,3.53
2022-10-09T21:39:31.821Z,3.50
2022-10-09T21:41:59.622Z,3.17
2022-10-09T21:44:27.557Z,3.55
2022-10-09T21:46:55.359Z,3.00
2022-10-09T21:49:25.564Z,3.10
2022-10-09T21:51:55.104Z,3.28
2022-10-09T21:54:23.288Z,2.85
2022-10-09T21:56:51.035Z,3.08
2022-10-09T21:59:18.821Z,3.50
2022-10-09T22:01:46.692Z,3.65
2022-10-09T22:04:14.529Z,4.00
2022-10-09T22:06:43.239Z,3.85
2022-10-09T22:09:12.548Z,4.00
2022-10-09T22:11:40.657Z,3.63
2022-10-09T22:14:08.433Z,3.47
2022-10-09T22:16:36.147Z,3.53
2022-10-09T22:19:03.964Z,3.90
2022-10-09T22:21:31.955Z,3.60
2022-10-09T22:24:00.565Z,3.70
2022-10-09T22:26:29.708Z,3.30
2022-10-09T22:28:57.485Z,3.60
2022-10-09T22:31:28.160Z,3.55
2022-10-09T22:33:57.900Z,3.17
2022-10-09T22:36:28.259Z,4.15
2022-10-09T22:38:57.312Z,3.40
2022-10-09T22:41:27.021Z,3.65
2022-10-09T22:43:58.660Z,3.40
2022-10-09T22:46:28.298Z,3.55
2022-10-09T22:48:56.583Z,3.55
2022-10-09T22:51:25.723Z,3.05
2022-10-09T22:53:53.582Z,2.70
2022-10-09T22:56:23.377Z,2.38
2022-10-09T22:58:53.035Z,2.50
2022-10-09T23:01:25.100Z,2.28
2022-10-09T23:03:53.022Z,2.17
2022-10-09T23:06:21.160Z,2.17
2022-10-09T23:08:49.305Z,1.63
2022-10-09T23:11:19.095Z,2.13
2022-10-09T23:13:47.736Z,2.30
2022-10-09T23:16:16.668Z,2.83
2022-10-09T23:18:46.138Z,2.50
2022-10-09T23:21:16.621Z,2.20
2022-10-09T23:23:45.842Z,2.33
2022-10-09T23:26:15.655Z,2.70
2022-10-09T23:28:49.807Z,2.70
2022-10-09T23:31:17.659Z,2.30
2022-10-09T23:33:47.271Z,2.00
2022-10-09T23:36:17.025Z,2.40
2022-10-09T23:38:45.047Z,2.05
2022-10-09T23:41:15.326Z,1.58
2022-10-09T23:43:43.995Z,2.10
2022-10-09T23:46:14.503Z,1.80
2022-10-09T23:48:42.557Z,1.70
2022-10-09T23:51:12.181Z,1.90
2022-10-09T23:53:39.964Z,2.20
2022-10-09T23:56:16.590Z,1.88
2022-10-09T23:58:44.642Z,2.00
